createdAt,value
2023-02-01T00:00:34.024Z,100420.31
2023-02-01T00:03:01.568Z,100396.19
2023-02-01T00:05:30.269Z,100407.19
2023-02-01T00:07:57.652Z,100414.28
2023-02-01T00:10:25.093Z,100417.75
2023-02-01T00:12:52.490Z,100408.13
2023-02-01T00:15:20.424Z,100404.63
2023-02-01T00:17:47.815Z,100396.69
2023-02-01T00:20:15.209Z,100402.91
2023-02-01T00:22:43.917Z,100402.03
2023-02-01T00:25:11.296Z,100398.56
2023-02-01T00:27:38.720Z,100393.47
2023-02-01T00:30:07.165Z,100403.91
2023-02-01T00:32:34.546Z,100405.69
2023-02-01T00:35:01.905Z,100415.31
2023-02-01T00:37:29.294Z,100413.59
2023-02-01T00:39:58.025Z,100411.88
2023-02-01T00:42:25.482Z,100415.31
2023-02-01T00:44:52.844Z,100403.28
2023-02-01T00:47:20.901Z,100410.16
2023-02-01T00:49:48.304Z,100436.63
2023-02-01T00:52:15.707Z,100408.44
2023-02-01T00:54:43.132Z,100394.38
2023-02-01T00:57:11.859Z,100382.16
2023-02-01T00:59:39.242Z,100385.63
2023-02-01T01:02:06.659Z,100390.03
2023-02-01T01:04:34.083Z,100387.38
2023-02-01T01:07:01.478Z,100382.09
2023-02-01T01:09:28.874Z,100373.31
2023-02-01T01:11:56.294Z,100384.81
2023-02-01T01:14:24.976Z,100377.75
2023-02-01T01:16:52.392Z,100375.19
2023-02-01T01:19:19.781Z,100368.28
2023-02-01T01:21:47.164Z,100376.03
2023-02-01T01:24:14.631Z,100318.69
2023-02-01T01:26:42.034Z,100377.81
2023-02-01T01:29:10.698Z,100372.88
2023-02-01T01:31:39.416Z,100371.63
2023-02-01T01:34:06.830Z,100376.09
2023-02-01T01:36:34.226Z,100364.69
2023-02-01T01:39:01.638Z,100366.47
2023-02-01T01:41:32.447Z,100327.84
2023-02-01T01:44:00.802Z,100368.22
2023-02-01T01:46:29.078Z,100366.53
2023-02-01T01:49:03.279Z,100380.53
2023-02-01T01:51:30.824Z,100332.38
2023-02-01T01:54:01.395Z,100364.75
2023-02-01T01:56:29.277Z,100364.75
2023-02-01T01:58:56.657Z,100367.41
2023-02-01T02:01:24.023Z,100367.47
2023-02-01T02:03:51.403Z,100368.28
2023-02-01T02:06:25.118Z,100363.88
2023-02-01T02:08:52.541Z,100354.25
2023-02-01T02:11:19.914Z,100350.75
2023-02-01T02:13:49.011Z,100362.19
2023-02-01T02:16:30.097Z,100355.09
2023-02-01T02:19:03.278Z,100320.66
2023-02-01T02:21:43.501Z,100327.91
2023-02-01T02:24:34.689Z,100349.03
2023-02-01T02:27:23.754Z,100346.41
2023-02-01T02:30:33.178Z,100327.00
2023-02-01T02:33:28.614Z,100314.19
2023-02-01T02:35:58.011Z,100319.13
2023-02-01T02:38:28.895Z,100276.19
2023-02-01T02:41:01.058Z,100305.06
2023-02-01T02:43:49.229Z,100222.56
2023-02-01T02:46:35.992Z,100296.38
2023-02-01T02:49:06.687Z,100285.81
2023-02-01T02:51:54.270Z,100296.38
2023-02-01T02:54:41.179Z,100288.47
2023-02-01T02:57:26.996Z,100283.19
2023-02-01T03:00:11.939Z,100283.13
2023-02-01T03:02:56.708Z,100234.25
2023-02-01T03:05:26.357Z,100275.25
2023-02-01T03:07:57.596Z,100191.72
2023-02-01T03:10:28.235Z,100247.13
2023-02-01T03:12:57.795Z,100173.63
2023-02-01T03:15:27.107Z,100255.03
2023-02-01T03:17:54.488Z,100197.28
2023-02-01T03:20:22.903Z,100243.66
2023-02-01T03:22:51.799Z,100241.06
2023-02-01T03:25:20.657Z,100237.44
2023-02-01T03:27:49.904Z,100243.59
2023-02-01T03:30:20.176Z,100235.66
2023-02-01T03:33:00.820Z,100241.00
2023-02-01T03:35:30.776Z,100186.09
2023-02-01T03:38:04.122Z,100238.31
2023-02-01T03:40:31.818Z,100225.44
2023-02-01T03:42:59.195Z,100223.38
2023-02-01T03:45:28.184Z,100186.72
2023-02-01T03:47:57.536Z,100208.59
2023-02-01T03:50:26.140Z,100186.88
2023-02-01T03:52:55.177Z,100196.06
2023-02-01T03:55:24.371Z,100131.03
2023-02-01T03:57:53.833Z,100198.78
2023-02-01T04:00:23.864Z,100201.47
2023-02-01T04:02:51.718Z,100210.25
2023-02-01T04:05:19.095Z,100202.31
2023-02-01T04:07:46.515Z,100197.03
2023-02-01T04:10:13.990Z,100210.25
2023-02-01T04:12:42.733Z,100196.97
2023-02-01T04:15:10.838Z,100176.13
2023-02-01T04:17:40.754Z,100181.19
2023-02-01T04:20:09.894Z,100181.28
2023-02-01T04:22:37.296Z,100172.53
2023-02-01T04:25:06.601Z,100170.91
2023-02-01T04:27:33.978Z,100173.34
2023-02-01T04:30:02.666Z,100166.31
2023-02-01T04:32:30.055Z,100161.91
2023-02-01T04:34:57.437Z,100164.53
2023-02-01T04:37:24.813Z,100167.25
2023-02-01T04:39:52.207Z,100162.78
2023-02-01T04:42:19.598Z,100166.38
2023-02-01T04:44:46.978Z,100164.59
2023-02-01T04:47:16.545Z,100158.44
2023-02-01T04:49:43.947Z,100151.41
2023-02-01T04:52:11.306Z,100154.88
2023-02-01T04:54:39.035Z,100140.13
2023-02-01T04:57:06.405Z,100147.91
2023-02-01T04:59:33.796Z,100139.09
2023-02-01T05:02:01.186Z,100150.53
2023-02-01T05:04:29.940Z,100150.53
2023-02-01T05:06:57.342Z,100147.97
2023-02-01T05:09:24.722Z,100140.91
2023-02-01T05:12:09.455Z,100149.66
2023-02-01T05:14:36.871Z,100151.41
2023-02-01T05:17:04.245Z,100141.59
2023-02-01T05:19:32.936Z,100131.91
2023-02-01T05:22:00.308Z,100145.91
2023-02-01T05:24:27.977Z,100141.41
2023-02-01T05:26:55.370Z,100137.00
2023-02-01T05:29:22.766Z,100149.25
2023-02-01T05:31:50.319Z,100129.94
2023-02-01T05:34:17.783Z,100134.13
2023-02-01T05:36:46.492Z,100133.34
2023-02-01T05:39:13.930Z,100094.44
2023-02-01T05:41:41.312Z,100137.56
2023-02-01T05:44:08.808Z,100137.50
2023-02-01T05:46:36.235Z,100128.66
2023-02-01T05:49:03.663Z,100132.91
2023-02-01T05:51:31.256Z,100132.78
2023-02-01T05:53:59.955Z,100132.00
2023-02-01T05:56:27.337Z,100132.78
2023-02-01T05:58:54.726Z,100131.59
2023-02-01T06:01:22.176Z,100124.44
2023-02-01T06:03:49.586Z,100126.16
2023-02-01T06:06:17.006Z,100127.78
2023-02-01T06:08:44.386Z,100120.81
2023-02-01T06:11:30.609Z,100071.38
2023-02-01T06:13:59.501Z,100100.44
2023-02-01T06:16:27.011Z,100108.16
2023-02-01T06:18:54.780Z,100101.03
2023-02-01T06:21:25.237Z,100097.44
2023-02-01T06:23:52.678Z,100109.75
2023-02-01T06:26:21.619Z,100091.19
2023-02-01T06:28:49.037Z,100103.50
2023-02-01T06:31:16.527Z,100101.66
2023-02-01T06:33:44.024Z,100096.38
2023-02-01T06:36:11.971Z,100097.00
2023-02-01T06:38:39.757Z,100101.97
2023-02-01T06:41:07.171Z,100112.41
2023-02-01T06:43:35.890Z,100117.53
2023-02-01T06:46:03.693Z,100115.16
2023-02-01T06:48:31.114Z,100129.13
2023-02-01T06:50:58.518Z,100124.50
2023-02-01T06:53:25.943Z,100128.69
2023-02-01T06:55:54.577Z,100133.06
2023-02-01T06:58:21.958Z,100132.69
2023-02-01T07:00:51.280Z,100139.53
2023-02-01T07:03:18.670Z,100131.47
2023-02-01T07:05:46.059Z,100143.66
2023-02-01T07:08:13.675Z,100148.13
2023-02-01T07:10:41.106Z,100152.16
2023-02-01T07:13:08.728Z,100167.94
2023-02-01T07:15:36.155Z,100163.53
2023-02-01T07:18:05.223Z,100158.16
2023-02-01T07:20:32.640Z,100165.16
2023-02-01T07:23:00.057Z,100161.44
2023-02-01T07:25:27.467Z,100156.06
2023-02-01T07:27:54.863Z,100161.19
2023-02-01T07:30:22.629Z,100166.41
2023-02-01T07:32:50.150Z,100174.28
2023-02-01T07:35:18.899Z,100182.06
2023-02-01T07:37:46.293Z,100175.94
2023-02-01T07:40:14.067Z,100189.97
2023-02-01T07:42:41.456Z,100175.84
2023-02-01T07:45:20.962Z,100167.91
2023-02-01T07:47:48.551Z,100166.19
2023-02-01T07:50:16.027Z,100175.66
2023-02-01T07:52:44.745Z,100179.19
2023-02-01T07:55:12.155Z,100180.72
2023-02-01T07:57:39.578Z,100178.16
2023-02-01T08:00:25.659Z,100182.31
2023-02-01T08:02:53.112Z,100194.59
2023-02-01T08:05:21.211Z,100186.59
2023-02-01T08:07:51.907Z,100158.25
2023-02-01T08:10:19.427Z,100176.75
2023-02-01T08:12:48.614Z,100184.03
2023-02-01T08:15:17.033Z,100197.09
2023-02-01T08:17:48.467Z,100203.25
2023-02-01T08:20:15.950Z,100188.59
2023-02-01T08:22:43.333Z,100204.84
2023-02-01T08:25:12.462Z,100196.91
2023-02-01T08:27:39.977Z,100201.25
2023-02-01T08:30:09.175Z,100202.19
2023-02-01T08:32:36.607Z,100198.69
2023-02-01T08:35:04.095Z,100207.47
2023-02-01T08:37:31.549Z,100206.59
2023-02-01T08:39:58.972Z,100199.47
2023-02-01T08:42:45.329Z,100198.53
2023-02-01T08:45:12.980Z,100212.63
2023-02-01T08:47:40.354Z,100209.53
2023-02-01T08:50:08.482Z,100212.00
2023-02-01T08:52:38.118Z,100206.69
2023-02-01T08:55:06.542Z,100208.41
2023-02-01T08:57:35.257Z,100209.19
2023-02-01T09:00:03.052Z,100190.66
2023-02-01T09:02:30.429Z,100202.91
2023-02-01T09:05:00.879Z,100195.72
2023-02-01T09:07:28.311Z,100204.47
2023-02-01T09:09:57.240Z,100217.59
2023-02-01T09:12:24.681Z,100212.25
2023-02-01T09:14:53.688Z,100210.53
2023-02-01T09:17:21.116Z,100212.38
2023-02-01T09:19:48.528Z,100224.75
2023-02-01T09:22:16.430Z,100224.59
2023-02-01T09:24:43.866Z,100214.72
2023-02-01T09:27:11.360Z,100202.03
2023-02-01T09:29:38.785Z,100226.34
2023-02-01T09:32:08.241Z,100222.47
2023-02-01T09:34:35.803Z,100222.09
2023-02-01T09:37:03.439Z,100215.28
2023-02-01T09:39:31.838Z,100222.69
2023-02-01T09:42:04.205Z,100233.03
2023-02-01T09:44:45.005Z,100211.88
2023-02-01T09:47:17.486Z,100213.53
2023-02-01T09:49:53.675Z,100219.31
2023-02-01T09:52:23.826Z,100176.38
2023-02-01T09:54:51.595Z,100225.25
2023-02-01T09:57:21.254Z,100165.16
2023-02-01T09:59:50.000Z,100207.41
2023-02-01T10:02:20.099Z,100223.97
2023-02-01T10:04:47.497Z,100227.41
2023-02-01T10:07:21.307Z,100218.41
2023-02-01T10:10:01.092Z,100214.88
2023-02-01T10:12:50.427Z,100227.31
2023-02-01T10:15:25.278Z,100195.56
2023-02-01T10:18:01.587Z,100222.69
2023-02-01T10:20:30.996Z,100225.31
2023-02-01T10:23:23.207Z,100157.97
2023-02-01T10:25:54.167Z,100176.13
2023-02-01T10:28:22.711Z,100221.47
2023-02-01T10:30:50.277Z,100212.66
2023-02-01T10:33:20.483Z,100223.25
2023-02-01T10:35:47.993Z,100212.06
2023-02-01T10:38:20.453Z,100170.13
2023-02-01T10:40:47.839Z,100204.38
2023-02-01T10:43:15.203Z,100200.78
2023-02-01T10:45:43.367Z,100190.19
2023-02-01T10:48:10.734Z,100189.41
2023-02-01T10:50:41.428Z,100185.75
2023-02-01T10:53:11.734Z,100184.72
2023-02-01T10:55:41.405Z,100177.72
2023-02-01T10:58:09.645Z,100128.22
2023-02-01T11:00:45.143Z,100140.66
2023-02-01T11:03:23.733Z,100188.13
2023-02-01T11:05:52.455Z,100182.94
2023-02-01T11:08:19.832Z,100190.09
2023-02-01T11:10:47.207Z,100182.22
2023-02-01T11:13:17.313Z,100190.19
2023-02-01T11:15:45.105Z,100177.00
2023-02-01T11:18:17.636Z,100132.41
2023-02-01T11:20:45.032Z,100175.22
2023-02-01T11:23:17.259Z,100152.38
2023-02-01T11:25:50.218Z,100132.75
2023-02-01T11:28:17.615Z,100157.41
2023-02-01T11:30:46.246Z,100144.25
2023-02-01T11:33:15.401Z,100091.28
2023-02-01T11:35:43.112Z,100136.63
2023-02-01T11:38:21.528Z,100113.63
2023-02-01T11:40:48.922Z,100126.78
2023-02-01T11:43:18.936Z,100132.78
2023-02-01T11:45:55.602Z,100052.72
2023-02-01T11:48:26.821Z,100102.81
2023-02-01T11:51:00.714Z,100040.84
2023-02-01T11:53:40.809Z,100090.50
2023-02-01T11:56:13.895Z,100077.84
2023-02-01T11:58:50.307Z,100077.50
2023-02-01T12:01:28.976Z,100062.38
2023-02-01T12:04:15.200Z,100060.38
2023-02-01T12:06:50.385Z,100051.16
2023-02-01T12:09:27.091Z,99968.72
2023-02-01T12:12:00.477Z,100058.41
2023-02-01T12:14:36.856Z,100056.53
2023-02-01T12:17:16.626Z,100054.72
2023-02-01T12:19:56.082Z,100000.28
2023-02-01T12:22:30.494Z,100029.69
2023-02-01T12:25:08.327Z,100044.19
2023-02-01T12:27:47.804Z,100048.41
2023-02-01T12:30:37.269Z,100042.91
2023-02-01T12:33:08.001Z,100049.75
2023-02-01T12:35:49.418Z,100034.44
2023-02-01T12:38:22.927Z,100027.22
2023-02-01T12:41:00.431Z,100047.41
2023-02-01T12:43:36.249Z,100009.38
2023-02-01T12:46:05.945Z,100027.81
2023-02-01T12:48:35.623Z,100033.00
2023-02-01T12:51:04.708Z,99985.78
2023-02-01T12:53:38.536Z,99993.75
2023-02-01T12:56:08.951Z,99994.91
2023-02-01T12:58:40.351Z,100005.81
2023-02-01T13:01:09.598Z,99991.81
2023-02-01T13:03:38.580Z,99996.34
2023-02-01T13:06:08.954Z,99991.81
2023-02-01T13:08:40.558Z,99990.84
2023-02-01T13:11:14.624Z,99994.06
2023-02-01T13:13:47.145Z,99984.78
2023-02-01T13:16:19.127Z,99963.38
2023-02-01T13:18:48.198Z,99987.53
2023-02-01T13:21:17.924Z,99974.72
2023-02-01T13:23:46.952Z,99956.34
2023-02-01T13:26:16.855Z,99982.41
2023-02-01T13:28:46.767Z,99975.59
2023-02-01T13:31:32.158Z,99942.09
2023-02-01T13:34:18.710Z,99978.69
2023-02-01T13:36:51.466Z,99952.31
2023-02-01T13:39:46.113Z,100007.31
2023-02-01T13:42:20.247Z,100006.53
2023-02-01T13:44:49.022Z,100008.44
2023-02-01T13:47:24.903Z,99989.13
2023-02-01T13:49:52.295Z,99971.50
2023-02-01T13:52:29.193Z,99954.59
2023-02-01T13:55:16.799Z,99945.19
2023-02-01T13:57:45.841Z,99944.41
2023-02-01T14:00:25.711Z,99949.81
2023-02-01T14:03:16.712Z,99943.63
2023-02-01T14:06:04.643Z,99940.16
2023-02-01T14:08:40.880Z,99891.44
2023-02-01T14:11:08.482Z,99941.25
2023-02-01T14:13:37.781Z,99939.47
2023-02-01T14:16:16.396Z,99942.03
2023-02-01T14:19:10.966Z,99929.56
2023-02-01T14:21:48.735Z,99893.38
2023-02-01T14:24:24.445Z,99943.94
2023-02-01T14:26:53.062Z,99971.38
2023-02-01T14:29:32.678Z,99973.69
2023-02-01T14:32:06.698Z,99939.16
2023-02-01T14:34:43.809Z,99983.84
2023-02-01T14:37:12.452Z,99984.94
2023-02-01T14:39:51.518Z,100012.28
2023-02-01T14:42:24.384Z,99990.94
2023-02-01T14:44:58.635Z,100017.78
2023-02-01T14:47:33.996Z,100034.53
2023-02-01T14:50:23.087Z,100046.91
2023-02-01T14:52:53.798Z,100034.72
2023-02-01T14:55:24.204Z,100047.00
2023-02-01T14:57:52.173Z,100055.03
2023-02-01T15:00:23.831Z,100043.56
2023-02-01T15:02:51.664Z,100052.47
2023-02-01T15:05:34.872Z,100053.34
2023-02-01T15:08:06.626Z,100046.31
2023-02-01T15:10:34.758Z,100025.56
2023-02-01T15:13:02.177Z,100047.34
2023-02-01T15:15:34.334Z,100048.22
2023-02-01T15:18:01.752Z,100050.09
2023-02-01T15:20:29.682Z,100057.16
2023-02-01T15:22:59.408Z,100003.94
2023-02-01T15:25:28.120Z,100014.53
2023-02-01T15:27:55.638Z,100056.31
2023-02-01T15:30:24.762Z,100061.47
2023-02-01T15:32:54.204Z,100028.19
2023-02-01T15:35:36.991Z,100062.38
2023-02-01T15:38:37.733Z,100071.28
2023-02-01T15:41:10.232Z,100048.34
2023-02-01T15:43:39.315Z,100081.16
2023-02-01T15:46:09.835Z,100013.84
2023-02-01T15:48:41.846Z,100069.09
2023-02-01T15:51:14.553Z,100103.31
2023-02-01T15:53:45.153Z,100099.88
2023-02-01T15:56:12.521Z,100107.81
2023-02-01T15:58:42.248Z,100109.63
2023-02-01T16:01:14.363Z,100105.25
2023-02-01T16:03:44.239Z,100101.00
2023-02-01T16:06:12.609Z,100101.84
2023-02-01T16:08:40.378Z,100103.72
2023-02-01T16:11:28.410Z,100101.00
2023-02-01T16:13:55.840Z,100105.59
2023-02-01T16:16:23.770Z,100104.75
2023-02-01T16:18:52.545Z,100109.19
2023-02-01T16:21:19.998Z,100094.31
2023-02-01T16:23:50.422Z,100101.50
2023-02-01T16:26:17.829Z,100098.16
2023-02-01T16:28:45.445Z,100119.41
2023-02-01T16:31:19.888Z,100126.53
2023-02-01T16:33:49.144Z,100071.44
2023-02-01T16:36:18.000Z,100045.94
2023-02-01T16:38:46.071Z,100099.88
2023-02-01T16:41:14.384Z,100143.00
2023-02-01T16:43:41.768Z,100137.63
2023-02-01T16:46:14.471Z,100141.28
2023-02-01T16:48:42.705Z,100128.97
2023-02-01T16:51:11.502Z,100135.31
2023-02-01T16:53:53.434Z,100134.53
2023-02-01T16:56:22.919Z,100134.94
2023-02-01T16:58:50.463Z,100152.44
2023-02-01T17:01:19.171Z,100135.50
2023-02-01T17:03:47.367Z,100152.59
2023-02-01T17:06:15.640Z,100150.03
2023-02-01T17:08:45.215Z,100089.53
2023-02-01T17:11:12.972Z,100159.94
2023-02-01T17:13:41.812Z,100130.47
2023-02-01T17:16:17.736Z,100170.69
2023-02-01T17:18:45.319Z,100151.53
2023-02-01T17:21:12.675Z,100156.91
2023-02-01T17:23:40.694Z,100160.59
2023-02-01T17:26:11.580Z,100173.03
2023-02-01T17:28:39.034Z,100166.13
2023-02-01T17:31:06.539Z,100166.13
2023-02-01T17:33:36.718Z,100071.66
2023-02-01T17:36:05.702Z,100164.53
2023-02-01T17:38:33.075Z,100155.94
2023-02-01T17:41:00.502Z,100153.28
2023-02-01T17:43:29.310Z,100155.06
2023-02-01T17:45:58.305Z,100162.13
2023-02-01T17:48:27.919Z,100158.72
2023-02-01T17:50:58.671Z,100166.75
2023-02-01T17:53:26.132Z,100173.81
2023-02-01T17:55:53.536Z,100165.97
2023-02-01T17:58:21.005Z,100172.19
2023-02-01T18:00:50.093Z,100170.47
2023-02-01T18:03:22.843Z,100168.75
2023-02-01T18:05:53.296Z,100167.13
2023-02-01T18:08:22.656Z,100172.44
2023-02-01T18:10:51.274Z,100097.94
2023-02-01T18:13:18.691Z,100174.38
2023-02-01T18:15:46.090Z,100177.94
2023-02-01T18:18:14.827Z,100178.94
2023-02-01T18:20:43.325Z,100187.75
2023-02-01T18:23:18.616Z,100190.47
2023-02-01T18:25:47.082Z,100185.34
2023-02-01T18:28:15.328Z,100204.78
2023-02-01T18:30:43.046Z,100135.50
2023-02-01T18:33:11.898Z,100195.19
2023-02-01T18:35:40.755Z,100200.56
2023-02-01T18:38:08.248Z,100202.44
2023-02-01T18:40:36.506Z,100198.94
2023-02-01T18:43:03.941Z,100192.19
2023-02-01T18:45:32.631Z,100198.16
2023-02-01T18:48:00.539Z,100211.44
2023-02-01T18:50:28.335Z,100202.69
2023-02-01T18:52:57.735Z,100212.38
2023-02-01T18:55:25.828Z,100207.19
2023-02-01T18:57:53.460Z,100142.38
2023-02-01T19:00:21.835Z,100156.28
2023-02-01T19:02:49.421Z,100217.91
2023-02-01T19:05:17.013Z,100213.63
2023-02-01T19:07:44.458Z,100225.91
2023-02-01T19:10:15.914Z,100222.47
2023-02-01T19:12:43.349Z,100227.75
2023-02-01T19:15:15.439Z,100224.28
2023-02-01T19:17:43.666Z,100161.94
2023-02-01T19:20:12.400Z,100228.75
2023-02-01T19:22:40.286Z,100235.81
2023-02-01T19:25:08.389Z,100230.81
2023-02-01T19:27:37.104Z,100229.91
2023-02-01T19:30:05.062Z,100236.03
2023-02-01T19:32:32.422Z,100229.91
2023-02-01T19:34:59.905Z,100229.03
2023-02-01T19:37:27.277Z,100228.41
2023-02-01T19:39:54.663Z,100241.47
2023-02-01T19:42:22.030Z,100228.31
2023-02-01T19:44:50.728Z,100231.91
2023-02-01T19:47:18.115Z,100227.56
2023-02-01T19:49:45.504Z,100230.34
2023-02-01T19:52:12.959Z,100230.34
2023-02-01T19:54:40.342Z,100228.47
2023-02-01T19:57:07.717Z,100240.84
2023-02-01T19:59:35.113Z,100231.19
2023-02-01T20:02:02.929Z,100230.50
2023-02-01T20:04:30.368Z,100245.44
2023-02-01T20:06:57.736Z,100256.00
2023-02-01T20:09:26.744Z,100261.34
2023-02-01T20:11:54.739Z,100262.22
2023-02-01T20:14:22.478Z,100263.16
2023-02-01T20:16:49.894Z,100271.09
2023-02-01T20:19:18.596Z,100275.50
2023-02-01T20:21:46.619Z,100277.28
2023-02-01T20:24:15.138Z,100178.69
2023-02-01T20:26:43.807Z,100272.94
2023-02-01T20:29:11.288Z,100281.81
2023-02-01T20:31:38.706Z,100276.53
2023-02-01T20:34:06.111Z,100285.38
2023-02-01T20:36:34.804Z,100276.59
2023-02-01T20:39:02.493Z,100277.44
2023-02-01T20:41:29.876Z,100272.22
2023-02-01T20:43:57.269Z,100285.44
2023-02-01T20:46:24.752Z,100284.69
2023-02-01T20:48:52.208Z,100283.81
2023-02-01T20:51:20.741Z,100293.44
2023-02-01T20:53:52.465Z,100268.66
2023-02-01T20:56:21.133Z,100287.38
2023-02-01T20:58:48.512Z,100287.47
2023-02-01T21:01:16.158Z,100203.38
2023-02-01T21:03:43.599Z,100285.66
2023-02-01T21:06:11.451Z,100278.88
2023-02-01T21:08:38.882Z,100282.25
2023-02-01T21:11:09.145Z,100276.97
2023-02-01T21:13:40.439Z,100280.50
2023-02-01T21:16:09.465Z,100236.25
2023-02-01T21:18:36.927Z,100198.38
2023-02-01T21:21:07.439Z,100291.00
2023-02-01T21:23:44.551Z,100288.44
2023-02-01T21:26:13.489Z,100290.31
2023-02-01T21:28:40.919Z,100296.50
2023-02-01T21:31:08.461Z,100294.81
2023-02-01T21:33:35.905Z,100306.25
2023-02-01T21:36:03.719Z,100301.03
2023-02-01T21:38:31.115Z,100304.56
2023-02-01T21:41:17.558Z,100301.94
2023-02-01T21:43:46.901Z,100303.75
2023-02-01T21:46:14.302Z,100313.44
2023-02-01T21:51:02.552Z,100318.88
2023-02-01T21:53:29.949Z,100312.72
2023-02-01T21:55:57.353Z,100310.94
2023-02-01T21:58:24.742Z,100311.81
2023-02-01T22:00:53.457Z,100295.66
2023-02-01T22:03:20.862Z,100311.88
2023-02-01T22:05:50.370Z,100323.34
2023-02-01T22:08:17.809Z,100313.66
2023-02-01T22:10:45.202Z,100318.06
2023-02-01T22:13:12.899Z,100325.38
2023-02-01T22:15:40.283Z,100335.81
2023-02-01T22:18:09.278Z,100323.34
2023-02-01T22:20:36.697Z,100330.50
2023-02-01T22:23:04.230Z,100323.91
2023-02-01T22:25:31.810Z,100334.94
2023-02-01T22:28:32.318Z,100351.66
2023-02-01T22:30:46.648Z,100346.44
2023-02-01T22:33:15.376Z,100352.56
2023-02-01T22:35:42.760Z,100339.75
2023-02-01T22:38:10.148Z,100363.19
2023-02-01T22:40:37.536Z,100369.41
2023-02-01T22:43:05.336Z,100297.16
2023-02-01T22:45:32.721Z,100358.91
2023-02-01T22:48:00.121Z,100368.53
2023-02-01T22:50:28.819Z,100357.97
2023-02-01T22:52:56.203Z,100358.06
2023-02-01T22:55:23.993Z,100362.50
2023-02-01T22:57:51.702Z,100370.50
2023-02-01T23:00:19.523Z,100372.19
2023-02-01T23:02:46.917Z,100370.41
2023-02-01T23:05:14.442Z,100375.78
2023-02-01T23:07:43.785Z,100359.72
2023-02-01T23:10:12.645Z,100375.78
2023-02-01T23:12:40.006Z,100386.41
2023-02-01T23:15:08.427Z,100390.81
2023-02-01T23:17:36.156Z,100349.97
2023-02-01T23:20:03.646Z,100396.97
2023-02-01T23:22:31.062Z,100389.97
2023-02-01T23:24:59.938Z,100388.19
2023-02-01T23:27:27.711Z,100251.84
2023-02-01T23:29:55.103Z,100403.22
2023-02-01T23:32:22.479Z,100392.81
2023-02-01T23:34:49.863Z,100390.16
2023-02-01T23:37:17.299Z,100334.50
2023-02-01T23:39:44.693Z,100413.94
2023-02-01T23:42:13.391Z,100402.53
2023-02-01T23:44:40.774Z,100398.16
2023-02-01T23:47:08.152Z,100398.16
2023-02-01T23:49:35.536Z,100404.38
2023-02-01T23:52:02.967Z,100400.03
2023-02-01T23:54:30.351Z,100404.44
2023-02-01T23:56:58.027Z,100339.13
2023-02-01T23:59:27.027Z,100366.88
